Time;durP1;ratioP1;P1;durP2;ratioP2;P2;SDS_P1;SDS_P2;PMS_P1;PMS_P2;Temp;Humidity;BMP_temperature;BMP_pressure;BME280_temperature;BME280_humidity;BME280_pressure;Samples;Min_cycle;Max_cycle;Signal;HPM_P1;HPM_P2
2023/09/02 00:00:50;;;;;;;7.00;5.90;;;18.10;83.30;;;20.98;53.24;101662.44;5015036;28;20226;-63
2023/09/02 00:03:18;;;;;;;8.93;6.50;;;18.10;83.50;;;20.97;53.81;101674.22;5014257;28;20993;-62
2023/09/02 00:05:46;;;;;;;6.97;5.97;;;18.10;83.40;;;20.94;53.86;101664.75;5014666;28;20207;-63
2023/09/02 00:08:13;;;;;;;6.00;5.40;;;18.00;83.30;;;20.91;53.85;101658.00;5015264;28;20247;-63
2023/09/02 00:10:40;;;;;;;5.67;5.07;;;18.00;83.70;;;20.92;53.70;101664.97;5015122;28;20274;-65
2023/09/02 00:13:07;;;;;;;9.60;5.80;;;18.00;83.90;;;20.96;53.98;101664.53;5013777;28;20330;-63
2023/09/02 00:15:34;;;;;;;7.07;6.23;;;18.10;84.00;;;20.98;53.67;101652.56;5014299;28;20215;-62
2023/09/02 00:18:01;;;;;;;5.83;5.23;;;18.10;83.80;;;21.02;54.10;101653.75;5014593;28;20712;-62
2023/09/02 00:20:30;;;;;;;7.93;5.90;;;18.20;83.80;;;21.07;53.46;101651.28;5020001;28;20199;-64
2023/09/02 00:22:57;;;;;;;6.23;5.63;;;18.20;83.60;;;21.13;53.25;101655.75;5014721;28;20727;-64
2023/09/02 00:25:24;;;;;;;6.33;5.70;;;18.30;83.30;;;21.16;53.00;101655.28;5014521;28;20294;-61
2023/09/02 00:27:52;;;;;;;6.60;6.00;;;18.30;82.90;;;21.19;52.88;101657.53;5015091;28;20262;-64
2023/09/02 00:30:20;;;;;;;6.50;5.90;;;18.40;82.60;;;21.18;53.21;101663.91;5014406;28;20208;-64
2023/09/02 00:32:48;;;;;;;7.50;6.80;;;18.40;82.50;;;21.18;53.17;101655.88;5005291;28;20201;-67
2023/09/02 00:35:15;;;;;;;7.83;6.43;;;18.30;82.40;;;21.17;52.82;101656.94;5015026;28;20211;-62
2023/09/02 00:37:44;;;;;;;7.23;6.50;;;18.40;82.60;;;21.17;53.09;101662.28;5014627;28;20219;-64
2023/09/02 00:40:16;;;;;;;8.50;7.70;;;18.40;82.60;;;21.17;52.81;101661.47;5013331;28;20637;-64
2023/09/02 00:42:45;;;;;;;7.93;7.27;;;18.30;82.30;;;21.13;52.84;101658.44;5014371;28;20222;-66
2023/09/02 00:45:12;;;;;;;8.00;7.30;;;18.30;82.30;;;;;;5002119;28;20755;-66
2023/09/02 00:47:39;;;;;;;6.53;5.83;;;18.30;82.40;;;21.07;53.11;101655.78;4993788;28;20271;-66
2023/09/02 00:50:07;;;;;;;9.20;7.03;;;18.20;83.00;;;21.05;53.33;101653.34;5001064;28;20222;-65
2023/09/02 00:52:34;;;;;;;8.30;6.77;;;18.20;83.10;;;21.06;53.28;101665.69;5014699;28;20195;-64
2023/09/02 00:55:04;;;;;;;8.70;7.90;;;18.20;83.10;;;21.07;53.04;101659.31;5019884;28;20304;-64
2023/09/02 00:57:31;;;;;;;7.97;7.17;;;18.20;82.80;;;21.06;53.61;101663.00;5034061;28;20260;-64
2023/09/02 01:00:02;;;;;;;8.33;7.37;;;18.20;82.90;;;21.07;53.50;101664.66;5029167;28;20651;-66
2023/09/02 01:02:32;;;;;;;7.67;6.80;;;18.20;82.80;;;21.06;53.30;101663.00;5014385;28;20195;-64
2023/09/02 01:05:00;;;;;;;7.17;6.47;;;18.30;83.10;;;21.07;53.70;101659.31;5014044;28;20269;-64
2023/09/02 01:07:27;;;;;;;8.10;7.23;;;18.30;82.90;;;;;;5014468;28;20257;-65
2023/09/02 01:09:55;;;;;;;6.77;6.17;;;18.30;82.60;;;21.10;52.75;101666.91;5014202;28;20640;-65
2023/09/02 01:12:25;;;;;;;7.37;6.70;;;18.30;82.00;;;21.05;52.48;101661.38;5013971;28;20245;-65
2023/09/02 01:14:52;;;;;;;7.00;6.23;;;18.30;81.80;;;20.99;53.04;101659.53;5013969;28;20274;-65
2023/09/02 01:17:21;;;;;;;8.03;7.23;;;18.30;81.60;;;20.93;52.75;101666.63;5014139;28;20270;-64
2023/09/02 01:19:51;;;;;;;8.40;7.27;;;18.20;81.60;;;20.86;52.41;101670.38;5025359;28;20225;-64
2023/09/02 01:22:46;;;;;;;7.67;6.73;;;18.10;82.00;;;20.75;53.12;101665.75;5024339;28;20198;-67
2023/09/02 01:25:59;;;;;;;7.97;6.87;;;18.00;82.10;;;20.62;52.70;101669.34;5012458;28;20215;-65
2023/09/02 01:28:33;;;;;;;7.67;6.87;;;17.90;81.90;;;20.58;53.37;101672.66;5013889;28;20612;-63
2023/09/02 01:31:05;;;;;;;8.50;7.03;;;17.80;82.60;;;20.54;54.06;101682.97;5013996;28;20262;-66
2023/09/02 01:33:32;;;;;;;8.73;7.73;;;17.80;83.50;;;20.56;54.12;101674.75;5012815;28;20274;-65
2023/09/02 01:36:01;;;;;;;8.00;7.30;;;17.70;83.90;;;20.57;54.03;101687.91;5013817;28;20286;-65
2023/09/02 01:38:32;;;;;;;8.90;8.00;;;17.70;83.90;;;20.57;53.73;101677.19;5017596;28;20289;-65
2023/09/02 01:41:04;;;;;;;7.90;6.63;;;17.70;83.60;;;20.58;53.66;101678.03;5021687;28;20266;-65
2023/09/02 01:43:34;;;;;;;6.83;6.20;;;17.70;83.90;;;20.59;53.78;101690.34;5014078;28;20183;-66
2023/09/02 01:46:02;;;;;;;6.93;6.07;;;17.80;84.00;;;20.61;54.04;101693.66;5013591;28;20226;-66
2023/09/02 01:48:30;;;;;;;8.83;6.27;;;17.80;83.90;;;20.63;54.08;101691.56;5013780;28;20246;-64
2023/09/02 01:50:59;;;;;;;7.70;6.70;;;17.80;83.80;;;20.64;53.50;101693.19;5012704;28;20290;-64
2023/09/02 01:53:26;;;;;;;8.93;7.80;;;17.80;83.40;;;20.64;54.02;101698.53;5015316;28;20201;-65
2023/09/02 01:55:53;;;;;;;8.33;7.33;;;17.80;83.10;;;20.61;53.89;101699.00;5016189;28;20716;-66
2023/09/02 01:58:20;;;;;;;7.07;6.47;;;17.80;83.20;;;20.58;53.64;101699.44;5017664;28;20219;-68
2023/09/02 02:00:49;;;;;;;7.60;6.90;;;17.70;83.50;;;20.55;53.96;101694.50;5017773;28;20725;-66
2023/09/02 02:03:24;;;;;;;7.30;6.70;;;17.70;83.40;;;20.49;53.47;101695.38;5016373;28;20498;-64
2023/09/02 02:05:53;;;;;;;7.97;7.17;;;17.70;83.40;;;20.43;53.53;101698.91;5017448;28;20215;-65
2023/09/02 02:08:31;;;;;;;7.20;6.07;;;17.60;83.30;;;20.33;54.12;101706.56;5017695;28;20269;-69
2023/09/02 02:11:02;;;;;;;7.67;6.97;;;17.50;83.70;;;20.28;54.08;101704.53;5017332;28;20218;-64
2023/09/02 02:13:29;;;;;;;7.77;6.03;;;17.50;84.10;;;20.23;54.02;101704.34;5017656;28;20199;-66
2023/09/02 02:15:58;;;;;;;7.60;6.90;;;17.40;84.20;;;20.18;54.48;101699.63;5032243;28;20211;-65
2023/09/02 02:18:25;;;;;;;6.87;6.27;;;17.30;84.50;;;20.15;54.96;101708.09;5032365;28;20612;-68
2023/09/02 02:21:00;;;;;;;7.13;5.67;;;17.30;84.80;;;20.12;54.70;101705.00;5007745;28;20195;-65
2023/09/02 02:23:27;;;;;;;6.97;6.33;;;17.30;85.10;;;20.16;55.48;101711.56;5017077;28;20214;-66
2023/09/02 02:25:59;;;;;;;6.93;6.33;;;17.30;85.30;;;20.20;55.19;101713.63;5016980;28;20237;-66
2023/09/02 02:28:26;;;;;;;9.03;7.13;;;17.30;85.00;;;20.24;54.48;101717.53;5016270;28;20562;-65
2023/09/02 02:30:54;;;;;;;7.30;6.60;;;17.40;84.70;;;20.25;54.53;101707.66;5017170;28;20213;-63
2023/09/02 02:33:22;;;;;;;7.83;7.13;;;17.40;84.30;;;20.25;54.08;101711.13;5015868;28;20197;-67
2023/09/02 02:35:49;;;;;;;7.03;6.43;;;17.40;84.30;;;20.22;54.19;101716.94;5016777;28;20215;-64
2023/09/02 02:38:16;;;;;;;7.40;6.70;;;17.40;84.50;;;20.22;55.09;101710.75;5016730;28;20211;-66
2023/09/02 02:40:43;;;;;;;7.67;6.23;;;17.30;84.90;;;20.27;54.65;101723.47;5017003;28;20583;-65
2023/09/02 02:43:11;;;;;;;6.80;6.10;;;17.40;85.30;;;20.33;54.56;101722.59;5017058;28;20672;-65
2023/09/02 02:45:38;;;;;;;7.03;6.40;;;17.40;84.80;;;20.37;54.37;101721.16;5002293;28;20294;-65
2023/09/02 02:48:05;;;;;;;7.80;7.03;;;17.50;84.30;;;20.38;54.31;101726.28;4996054;28;20215;-64
2023/09/02 02:50:35;;;;;;;8.33;7.20;;;17.50;84.00;;;20.36;53.82;101723.00;4999908;28;20196;-65
2023/09/02 02:53:03;;;;;;;8.43;6.43;;;17.50;83.40;;;20.33;53.96;101722.59;5016910;28;20735;-65
2023/09/02 02:55:30;;;;;;;7.73;7.03;;;17.40;83.80;;;20.29;54.10;101721.41;5016475;28;20334;-65
2023/09/02 02:57:57;;;;;;;7.87;7.17;;;17.40;84.20;;;20.27;54.35;101726.16;5016529;28;20197;-64
2023/09/02 03:00:24;;;;;;;7.40;6.70;;;17.40;84.40;;;20.24;54.43;101720.19;5016716;28;20195;-69
2023/09/02 03:02:52;;;;;;;7.77;7.17;;;17.40;84.20;;;20.20;54.28;101727.00;5015412;28;20329;-65
2023/09/02 03:05:20;;;;;;;9.67;7.53;;;17.30;83.90;;;20.12;54.46;101723.72;5016039;28;20302;-65
2023/09/02 03:07:49;;;;;;;7.33;6.33;;;17.20;84.10;;;20.06;54.55;101728.06;5015591;28;20199;-64
2023/09/02 03:10:16;;;;;;;7.43;6.60;;;17.20;84.30;;;20.02;54.38;101726.03;5016560;28;20527;-65
2023/09/02 03:12:44;;;;;;;7.20;6.50;;;17.10;84.20;;;19.94;54.49;101729.78;4996681;28;20206;-65
2023/09/02 03:15:12;;;;;;;7.27;6.57;;;17.10;85.20;;;19.87;54.42;101728.94;4995637;28;20278;-64
2023/09/02 03:17:39;;;;;;;7.37;6.57;;;16.90;84.70;;;19.81;54.52;101732.47;4996678;28;20556;-65
2023/09/02 03:20:07;;;;;;;7.17;6.57;;;16.90;85.00;;;19.76;54.57;101726.94;5022227;28;20264;-65
2023/09/02 03:22:34;;;;;;;9.10;7.77;;;16.80;85.20;;;19.71;54.89;101728.59;5028472;28;20594;-63
2023/09/02 03:25:03;;;;;;;6.77;6.17;;;16.80;85.70;;;19.65;55.90;101719.59;5031895;28;20319;-65
2023/09/02 03:27:30;;;;;;;6.83;6.13;;;16.70;86.00;;;19.62;55.84;101720.00;5014672;28;20593;-65
2023/09/02 03:29:58;;;;;;;9.10;7.53;;;16.70;86.20;;;19.61;55.89;101722.88;5016562;28;20191;-66
2023/09/02 03:32:26;;;;;;;7.30;6.60;;;16.70;86.30;;;19.57;56.01;101722.47;5016024;28;20187;-65
2023/09/02 03:34:54;;;;;;;6.97;6.27;;;16.60;86.60;;;19.56;56.21;101712.84;5015510;28;20818;-65
2023/09/02 03:37:21;;;;;;;7.10;6.40;;;16.70;86.90;;;19.57;56.26;101717.13;5015519;28;20530;-65
2023/09/02 03:39:48;;;;;;;7.43;6.67;;;16.70;86.60;;;19.57;56.05;101717.13;5014113;28;20234;-65
2023/09/02 03:42:16;;;;;;;7.67;6.93;;;16.70;86.40;;;19.56;56.11;101718.19;5015454;28;20203;-66
2023/09/02 03:44:43;;;;;;;7.13;6.43;;;16.70;86.30;;;19.56;56.16;101718.19;5008538;28;20192;-64
2023/09/02 03:47:10;;;;;;;7.87;7.17;;;16.70;86.50;;;19.56;55.79;101728.88;4996155;28;20214;-65
2023/09/02 03:49:38;;;;;;;7.50;6.73;;;16.70;86.20;;;19.55;55.96;101729.88;4995936;28;20188;-65
2023/09/02 03:52:05;;;;;;;7.80;7.10;;;16.70;86.40;;;19.55;55.91;101735.22;5008971;28;20201;-65
2023/09/02 03:54:32;;;;;;;7.37;6.63;;;16.70;87.00;;;19.54;55.81;101737.06;5015287;28;20286;-65
2023/09/02 03:56:59;;;;;;;7.33;6.63;;;16.70;86.20;;;19.55;56.04;101741.38;5015492;28;20280;-65
2023/09/02 03:59:27;;;;;;;7.47;6.83;;;16.70;86.50;;;19.57;55.72;101743.84;5014328;28;20223;-65
2023/09/02 04:01:54;;;;;;;10.53;8.27;;;16.70;86.20;;;19.56;55.62;101751.03;5015227;28;20191;-65
2023/09/02 04:04:21;;;;;;;8.20;7.40;;;16.70;86.00;;;19.55;56.04;101754.75;5015157;28;20205;-65
2023/09/02 04:06:48;;;;;;;9.03;8.10;;;16.70;86.20;;;19.56;56.10;101753.69;5014791;28;20219;-65
2023/09/02 04:09:15;;;;;;;8.53;7.73;;;16.70;86.20;;;19.56;55.96;101755.56;5015599;28;20498;-65
2023/09/02 04:11:43;;;;;;;8.80;7.97;;;16.70;86.10;;;19.56;55.81;101750.22;5014597;28;20195;-65
2023/09/02 04:14:10;;;;;;;8.37;7.57;;;16.70;86.20;;;19.57;56.27;101754.53;5015317;28;20769;-65
2023/09/02 04:16:38;;;;;;;9.07;8.27;;;16.70;86.40;;;19.61;55.73;101755.78;5012996;28;20513;-65
2023/09/02 04:19:05;;;;;;;7.93;7.13;;;16.80;86.10;;;19.62;55.76;101754.72;5020484;28;20285;-65
2023/09/02 04:21:33;;;;;;;8.63;7.73;;;16.80;85.90;;;19.62;55.67;101764.59;5028720;28;20717;-65
2023/09/02 04:24:00;;;;;;;9.17;8.27;;;16.80;85.70;;;19.60;55.61;101764.81;5034810;28;20205;-65
2023/09/02 04:26:27;;;;;;;8.47;7.67;;;16.80;85.70;;;19.58;55.68;101762.34;5018999;28;20214;-65
2023/09/02 04:28:55;;;;;;;8.27;7.47;;;16.80;86.10;;;19.59;55.74;101768.50;5015077;28;20205;-65
2023/09/02 04:31:23;;;;;;;8.43;7.63;;;16.80;85.70;;;19.57;55.52;101771.38;5014664;28;20191;-64
2023/09/02 04:33:52;;;;;;;8.70;7.83;;;16.70;85.40;;;19.56;55.10;101772.41;5014791;28;20229;-63
2023/09/02 04:36:19;;;;;;;8.50;7.60;;;16.70;85.50;;;19.56;55.54;101768.94;5013698;28;20247;-65
2023/09/02 04:38:46;;;;;;;9.67;8.67;;;16.70;86.00;;;19.54;55.67;101771.78;5014057;28;20211;-65
2023/09/02 04:41:13;;;;;;;9.23;8.33;;;16.70;85.60;;;19.53;55.69;101777.34;5014386;28;20197;-65
2023/09/02 04:43:41;;;;;;;10.87;9.30;;;16.70;85.80;;;19.52;55.40;101779.19;5014703;28;20270;-66
2023/09/02 04:46:08;;;;;;;9.10;8.30;;;16.70;85.80;;;19.51;55.77;101776.75;5014121;28;20297;-63
2023/09/02 04:48:35;;;;;;;8.90;8.00;;;16.70;86.30;;;19.54;56.12;101776.31;5014604;28;20199;-63
2023/09/02 04:51:04;;;;;;;15.60;12.10;;;16.70;86.30;;;19.57;55.85;101775.91;5014365;28;20622;-66
2023/09/02 04:53:31;;;;;;;10.03;9.13;;;16.70;85.80;;;19.58;55.84;101778.38;5014216;28;20202;-65
2023/09/02 04:56:00;;;;;;;9.47;8.50;;;16.70;85.80;;;19.59;55.27;101787.19;5014213;28;20219;-65
2023/09/02 04:58:27;;;;;;;9.53;8.73;;;16.70;85.50;;;19.57;54.96;101778.56;5014342;28;20191;-63
2023/09/02 05:00:54;;;;;;;10.03;8.43;;;16.80;85.50;;;19.55;55.64;101780.63;5014257;28;20932;-65
2023/09/02 05:03:21;;;;;;;8.97;8.07;;;16.70;85.80;;;19.56;55.58;101787.63;5013177;28;20201;-63
2023/09/02 05:05:49;;;;;;;9.53;8.63;;;16.70;86.00;;;19.57;55.37;101797.25;5013763;28;20322;-64
2023/09/02 05:08:18;;;;;;;9.53;8.63;;;16.70;86.10;;;19.57;55.50;101792.75;4998151;28;20192;-64
2023/09/02 05:10:45;;;;;;;9.33;8.53;;;16.70;86.10;;;19.58;55.83;101790.91;5014162;28;20194;-66
2023/09/02 05:13:12;;;;;;;11.43;8.80;;;16.70;86.10;;;19.58;55.62;101793.56;5013051;28;20203;-66
2023/09/02 05:15:39;;;;;;;11.70;9.07;;;16.70;86.10;;;19.59;55.67;101806.72;5013653;28;20687;-65
2023/09/02 05:18:07;;;;;;;9.37;8.43;;;16.70;85.80;;;19.61;55.46;101808.38;5013740;28;20201;-64
2023/09/02 05:20:34;;;;;;;9.20;8.30;;;16.70;86.10;;;19.61;55.43;101806.53;5013809;28;20301;-64
2023/09/02 05:23:01;;;;;;;9.87;8.97;;;16.70;86.00;;;19.64;55.35;101808.75;5014210;28;20562;-66
2023/09/02 05:25:30;;;;;;;9.47;8.67;;;16.70;85.80;;;19.68;55.30;101807.34;5013292;28;20301;-69
2023/09/02 05:27:57;;;;;;;9.57;8.57;;;16.80;86.00;;;19.72;55.54;101807.72;5012353;28;20274;-65
2023/09/02 05:30:24;;;;;;;9.30;8.50;;;16.80;85.80;;;19.75;55.50;101805.47;5013658;28;20218;-68
2023/09/02 05:32:51;;;;;;;9.50;8.30;;;16.80;85.90;;;19.79;55.70;101811.22;5013690;28;20203;-66
2023/09/02 05:35:18;;;;;;;9.10;8.30;;;16.80;85.90;;;19.83;55.57;101813.25;5013396;28;20684;-66
2023/09/02 05:37:45;;;;;;;10.53;9.00;;;16.90;86.00;;;19.88;55.41;101816.13;5013311;28;20191;-65
2023/09/02 05:40:12;;;;;;;10.03;9.13;;;17.00;85.80;;;19.93;55.29;101810.16;5013824;28;20215;-65
2023/09/02 05:42:41;;;;;;;9.53;8.63;;;17.00;86.30;;;19.96;55.13;101815.09;5013645;28;20265;-65
2023/09/02 05:45:09;;;;;;;9.03;8.13;;;17.00;85.40;;;19.99;55.05;101822.69;5012222;28;20690;-65
2023/09/02 05:47:36;;;;;;;10.10;9.10;;;17.10;85.50;;;20.01;55.06;101824.13;5012916;28;20691;-65
2023/09/02 05:50:04;;;;;;;10.10;9.17;;;17.10;85.30;;;20.02;54.47;101827.59;5014000;28;20242;-65
2023/09/02 05:52:31;;;;;;;9.97;8.97;;;17.10;85.30;;;20.06;54.68;101834.19;5013736;28;20290;-65
2023/09/02 05:54:58;;;;;;;11.30;9.47;;;17.10;85.50;;;20.09;54.92;101823.88;5013457;28;20273;-65
2023/09/02 05:57:29;;;;;;;10.00;9.10;;;17.20;85.40;;;20.14;55.04;101826.75;5029238;28;20566;-65
2023/09/02 05:59:57;;;;;;;10.93;9.73;;;17.20;85.40;;;20.19;54.91;101824.28;5016467;28;20222;-65
2023/09/02 06:02:24;;;;;;;9.27;8.00;;;17.30;85.40;;;20.22;54.65;101826.56;5013316;28;20200;-66
2023/09/02 06:04:53;;;;;;;10.40;8.53;;;17.30;85.40;;;20.29;54.92;101821.19;5013601;28;20683;-65
2023/09/02 06:07:20;;;;;;;9.80;8.90;;;17.30;85.50;;;20.34;54.88;101826.72;5013646;28;20652;-65
2023/09/02 06:09:47;;;;;;;9.00;8.20;;;17.40;85.30;;;20.40;54.44;101833.06;5013192;28;20192;-66
2023/09/02 06:12:14;;;;;;;8.73;7.83;;;17.40;85.10;;;20.45;54.22;101830.56;5013360;28;20282;-65
2023/09/02 06:14:41;;;;;;;8.80;8.00;;;17.50;85.20;;;20.50;54.31;101826.22;5012975;28;20675;-67
2023/09/02 06:17:09;;;;;;;9.33;8.43;;;17.50;85.30;;;20.59;54.49;101832.16;5013621;28;20192;-63
2023/09/02 06:19:36;;;;;;;9.60;8.60;;;17.60;85.30;;;20.68;53.77;101838.91;5022912;28;20674;-64
2023/09/02 06:22:03;;;;;;;10.57;9.27;;;17.60;85.00;;;20.72;54.24;101845.47;5024169;28;20686;-65
2023/09/02 06:24:30;;;;;;;9.00;8.20;;;17.70;84.80;;;20.79;54.14;101843.59;5013034;28;20234;-65
2023/09/02 06:27:03;;;;;;;9.30;8.40;;;17.80;84.90;;;20.89;54.20;101841.28;5013310;28;20215;-65
2023/09/02 06:29:32;;;;;;;10.33;9.23;;;17.80;85.00;;;21.04;53.48;101849.81;5011946;28;20195;-64
2023/09/02 06:31:59;;;;;;;9.50;8.57;;;17.90;85.00;;;21.19;53.21;101847.69;5012589;28;20197;-65
2023/09/02 06:34:28;;;;;;;8.90;8.00;;;18.00;85.00;;;21.32;53.35;101842.22;5013259;28;20277;-65
2023/09/02 06:36:56;;;;;;;7.77;6.97;;;18.10;84.80;;;21.43;52.88;101846.88;5011914;28;20219;-65
2023/09/02 06:39:23;;;;;;;8.50;7.70;;;18.20;84.80;;;21.54;52.84;101851.53;5015368;28;20207;-64
2023/09/02 06:41:50;;;;;;;9.47;8.63;;;18.30;84.40;;;21.68;52.88;101856.78;5017046;28;20278;-64
2023/09/02 06:44:20;;;;;;;9.03;8.23;;;18.40;84.40;;;21.78;52.56;101854.41;5016459;28;20195;-65
2023/09/02 06:46:47;;;;;;;9.63;8.73;;;18.50;84.40;;;21.88;52.85;101860.13;5016349;28;20269;-65
2023/09/02 06:49:14;;;;;;;9.30;8.40;;;18.60;84.40;;;22.00;52.62;101855.66;5015007;28;20222;-63
2023/09/02 06:51:43;;;;;;;8.57;7.70;;;18.70;84.30;;;22.10;52.30;101858.66;5016610;28;20274;-65
2023/09/02 06:54:10;;;;;;;9.67;7.70;;;18.80;84.20;;;22.18;52.19;101863.72;5016393;28;20195;-65
2023/09/02 06:56:37;;;;;;;10.70;8.40;;;18.80;84.10;;;22.25;52.02;101864.44;5015617;28;20226;-65
2023/09/02 06:59:04;;;;;;;20.33;18.20;;;18.90;83.90;;;22.34;52.07;101863.13;5014696;28;20200;-66
2023/09/02 07:01:31;;;;;;;42.60;35.70;;;19.00;83.80;;;22.43;51.91;101875.19;5016550;28;20234;-65
2023/09/02 07:03:58;;;;;;;11.13;9.93;;;19.10;83.80;;;22.52;51.90;101881.91;5016341;28;20191;-65
2023/09/02 07:06:25;;;;;;;8.40;7.30;;;19.20;83.60;;;22.64;51.61;101882.81;5014565;28;20234;-64
2023/09/02 07:08:54;;;;;;;8.73;7.83;;;19.30;83.50;;;22.79;51.30;101887.78;5016076;28;20195;-65
2023/09/02 07:11:21;;;;;;;9.57;8.60;;;19.40;83.40;;;22.87;51.23;101882.91;5016165;28;20183;-66
2023/09/02 07:13:48;;;;;;;8.40;7.47;;;19.50;83.30;;;22.99;51.27;101876.78;5014906;28;20207;-65
2023/09/02 07:16:15;;;;;;;9.30;8.30;;;19.50;83.10;;;23.30;51.03;101884.56;5015469;28;20215;-64
2023/09/02 07:18:43;;;;;;;9.07;7.27;;;19.70;83.60;;;23.79;50.16;101899.53;5015591;28;20227;-65
2023/09/02 07:21:11;;;;;;;6.73;6.03;;;19.90;83.80;;;24.38;49.49;101893.06;5016169;28;20618;-65
2023/09/02 07:23:38;;;;;;;7.17;5.83;;;20.20;83.70;;;24.94;48.03;101887.75;5015477;28;20652;-65
2023/09/02 07:26:06;;;;;;;5.93;5.33;;;20.60;82.70;;;25.45;47.43;101895.72;5015623;28;20253;-65
2023/09/02 07:28:36;;;;;;;6.13;5.13;;;21.00;81.50;;;26.04;46.17;101894.22;5015599;28;20242;-64
2023/09/02 07:31:05;;;;;;;4.50;4.10;;;21.50;80.30;;;26.77;44.88;101899.25;5015357;28;20195;-66
2023/09/02 07:33:33;;;;;;;3.87;3.47;;;22.00;78.80;;;27.14;43.00;101899.38;5014410;28;20272;-64
2023/09/02 07:36:07;;;;;;;4.50;3.67;;;22.50;76.10;;;27.29;42.61;101904.13;5015508;28;20242;-63
2023/09/02 07:38:34;;;;;;;5.90;4.17;;;22.90;74.70;;;27.42;42.45;101899.13;5015065;28;20526;-65
2023/09/02 07:41:03;;;;;;;4.53;3.20;;;23.10;73.70;;;27.58;42.15;101905.44;5015484;28;20222;-65
2023/09/02 07:43:32;;;;;;;4.37;3.97;;;23.40;72.80;;;27.86;41.48;101907.03;5015651;28;20682;-65
2023/09/02 07:45:59;;;;;;;4.03;3.63;;;23.60;71.70;;;28.39;39.04;101912.22;5015176;28;20239;-64
2023/09/02 07:48:26;;;;;;;3.37;3.07;;;23.80;68.80;;;29.11;38.34;101917.63;5018193;28;20191;-64
2023/09/02 07:50:53;;;;;;;5.13;4.27;;;24.20;69.70;;;29.93;37.88;101919.34;5013786;28;20219;-65
2023/09/02 07:53:21;;;;;;;3.37;3.13;;;24.60;69.00;;;30.71;35.61;101913.06;5014439;28;20301;-65
2023/09/02 07:55:48;;;;;;;3.40;3.10;;;25.10;65.90;;;31.41;35.03;101922.72;5014277;28;20307;-66
2023/09/02 07:58:15;;;;;;;2.90;2.60;;;25.70;64.80;;;31.92;33.98;101923.09;5015114;28;20218;-65
2023/09/02 08:00:43;;;;;;;2.90;2.70;;;26.10;63.50;;;32.36;32.54;101930.25;5014646;28;20646;-66
2023/09/02 08:03:10;;;;;;;3.47;3.00;;;26.60;60.00;;;32.95;31.91;101927.88;5015158;28;20195;-64
2023/09/02 08:05:41;;;;;;;3.00;2.30;;;27.10;60.50;;;33.69;30.60;101934.38;5014512;28;20214;-64
2023/09/02 08:08:08;;;;;;;5.13;4.13;;;27.50;57.90;;;34.37;30.15;101929.03;5014168;28;20207;-64
2023/09/02 08:10:35;;;;;;;2.70;2.47;;;28.00;57.50;;;35.01;27.91;101933.38;5015089;28;20227;-65
2023/09/02 08:13:06;;;;;;;4.57;2.40;;;28.40;54.30;;;35.32;27.38;101928.84;5014565;28;20628;-64
2023/09/02 08:15:33;;;;;;;3.50;2.00;;;28.90;53.40;;;35.74;27.72;101930.25;5014241;28;20219;-65
2023/09/02 08:18:02;;;;;;;3.03;2.20;;;29.30;53.10;;;36.22;26.74;101924.84;5015043;28;20191;-65
2023/09/02 08:20:30;;;;;;;3.05;2.50;;;29.70;52.00;;;36.61;26.26;101922.06;5031003;28;20207;-66
2023/09/02 08:22:57;;;;;;;3.20;3.00;;;30.10;49.80;;;36.90;25.74;101930.47;5019922;28;20191;-65
2023/09/02 08:25:25;;;;;;;3.33;2.35;;;30.40;48.60;;;37.24;24.87;101936.00;5014068;28;20337;-65
2023/09/02 08:27:52;;;;;;;2.70;2.28;;;30.70;47.20;;;37.69;24.70;101935.59;5014480;28;20199;-65
2023/09/02 08:30:20;;;;;;;5.28;2.58;;;30.90;47.50;;;38.09;24.51;101939.69;5014645;28;20195;-66
2023/09/02 08:32:47;;;;;;;2.58;2.38;;;31.20;47.30;;;38.50;23.93;101930.75;5014426;28;20191;-65
2023/09/02 08:35:15;;;;;;;2.65;2.13;;;31.50;46.20;;;38.87;23.44;101942.84;5014076;28;20215;-66
2023/09/02 08:37:42;;;;;;;2.50;2.03;;;31.80;45.20;;;39.13;23.17;101946.19;5012666;28;20198;-66
2023/09/02 08:40:10;;;;;;;5.25;3.42;;;32.20;43.70;;;38.98;22.18;101955.06;5031538;28;20256;-65
2023/09/02 08:42:40;;;;;;;15.48;13.98;;;32.40;42.00;;;38.56;22.51;101952.25;5033617;28;20197;-66
2023/09/02 08:45:08;;;;;;;31.08;27.88;;;32.40;41.10;;;37.99;22.94;101950.28;5021910;28;20595;-66
2023/09/02 08:47:38;;;;;;;4.57;4.03;;;32.20;40.80;;;37.27;23.61;101956.53;5013843;28;20194;-64
2023/09/02 08:50:08;;;;;;;8.32;6.80;;;32.00;41.10;;;36.40;23.76;101960.22;5028978;28;20187;-66
2023/09/02 08:52:40;;;;;;;6.20;5.60;;;31.60;41.20;;;35.52;25.53;101955.75;5029204;28;20652;-66
2023/09/02 08:55:09;;;;;;;4.15;3.65;;;31.10;42.00;;;34.70;26.01;101961.44;5006090;28;20236;-65
2023/09/02 08:57:39;;;;;;;7.63;6.07;;;30.60;42.90;;;34.09;27.30;101963.75;4994209;28;20200;-65
2023/09/02 09:00:08;;;;;;;2.97;2.67;;;30.10;43.80;;;33.88;27.53;101970.66;5011854;28;20222;-65
2023/09/02 09:02:39;;;;;;;3.70;2.97;;;29.70;44.80;;;34.41;27.49;101971.88;5013384;28;20230;-65
2023/09/02 09:05:08;;;;;;;4.95;3.72;;;29.50;45.70;;;34.89;26.48;101971.44;5013465;28;20211;-65
2023/09/02 09:07:40;;;;;;;4.53;3.50;;;29.50;45.40;;;34.91;26.43;101971.94;5014069;28;20215;-66
2023/09/02 09:10:13;;;;;;;6.60;6.00;;;29.50;45.20;;;34.87;26.97;101984.63;5013315;28;20191;-66
2023/09/02 09:12:42;;;;;;;3.75;3.42;;;29.50;45.80;;;34.82;26.20;101976.53;5013119;28;20187;-66
2023/09/02 09:15:16;;;;;;;4.38;3.50;;;29.50;45.70;;;34.52;26.65;101970.53;5013663;28;20233;-66
2023/09/02 09:17:44;;;;;;;5.97;4.23;;;29.50;45.70;;;34.02;27.23;101971.50;5013722;28;20195;-65
2023/09/02 09:20:13;;;;;;;4.90;4.40;;;29.30;44.80;;;33.28;27.55;101976.00;5016638;28;20222;-66
2023/09/02 09:22:43;;;;;;;4.67;4.17;;;29.10;45.10;;;32.67;28.99;101975.19;5013640;28;20274;-66
2023/09/02 09:25:11;;;;;;;5.50;3.57;;;28.90;45.40;;;32.43;29.06;101971.63;5013033;28;20213;-68
2023/09/02 09:27:38;;;;;;;4.30;3.90;;;28.60;46.30;;;32.29;29.01;101970.69;5013993;28;20198;-65
2023/09/02 09:30:25;;;;;;;4.77;3.90;;;28.30;46.70;;;32.15;29.55;101978.75;5013205;28;20195;-64
2023/09/02 09:32:57;;;;;;;5.67;4.90;;;28.10;47.30;;;32.00;29.59;101974.28;5013599;28;20191;-64
2023/09/02 09:35:25;;;;;;;4.70;3.53;;;27.90;48.00;;;31.94;30.02;101988.19;5013615;28;20302;-64
2023/09/02 09:37:54;;;;;;;4.47;3.70;;;27.70;48.60;;;31.83;30.37;101984.75;5013165;28;20191;-65
2023/09/02 09:40:30;;;;;;;4.60;4.20;;;27.50;49.20;;;31.63;30.71;101987.66;5014001;28;20294;-65
2023/09/02 09:42:58;;;;;;;7.13;4.33;;;27.40;49.40;;;31.60;30.82;101992.84;5032926;28;20263;-65
2023/09/02 09:45:27;;;;;;;10.53;7.77;;;27.30;49.50;;;31.99;30.24;101990.91;5008222;28;20689;-64
2023/09/02 09:47:57;;;;;;;5.47;4.83;;;27.30;50.20;;;32.83;29.17;101994.91;4992408;28;20287;-67
2023/09/02 09:50:27;;;;;;;4.30;3.90;;;27.40;50.50;;;33.86;28.52;101994.75;5011306;28;20278;-65
2023/09/02 09:53:01;;;;;;;4.53;4.13;;;27.70;50.70;;;35.22;27.23;102000.28;5013389;28;20210;-65
2023/09/02 09:55:30;;;;;;;7.20;3.58;;;28.20;50.50;;;36.14;25.29;101997.75;5012834;28;20246;-65
2023/09/02 09:57:59;;;;;;;5.40;3.45;;;28.80;48.90;;;36.82;24.85;101999.94;5013064;28;20191;-65
2023/09/02 10:00:28;;;;;;;5.75;4.35;;;29.40;48.10;;;37.52;24.25;102007.13;5013441;28;20215;-67
2023/09/02 10:02:59;;;;;;;5.90;3.80;;;30.00;46.60;;;37.76;23.63;101999.16;5012742;28;20195;-65
2023/09/02 10:05:28;;;;;;;6.05;4.60;;;30.40;45.60;;;37.32;23.49;102009.38;5012435;28;20211;-65
2023/09/02 10:08:02;;;;;;;8.55;5.38;;;30.60;43.30;;;36.32;24.78;102012.34;5012445;28;20195;-65
2023/09/02 10:10:32;;;;;;;10.32;4.80;;;30.60;43.10;;;35.33;25.40;102018.09;5012948;28;20209;-65
2023/09/02 10:13:01;;;;;;;5.03;4.63;;;30.40;43.10;;;34.49;26.07;102014.94;5013339;28;20234;-66
2023/09/02 10:15:30;;;;;;;6.03;4.90;;;30.10;43.30;;;33.90;26.91;102023.13;5015649;28;20227;-66
2023/09/02 10:18:00;;;;;;;4.90;4.40;;;29.80;43.90;;;33.49;27.87;102024.84;5017119;28;20269;-66